createdAt,value
2019-02-02T00:01:43.890Z,39.07
2019-02-02T00:04:13.137Z,40.40
2019-02-02T00:06:42.402Z,35.03
2019-02-02T00:09:11.675Z,36.23
2019-02-02T00:11:41.033Z,26.90
2019-02-02T00:14:10.201Z,29.67
2019-02-02T00:16:39.548Z,33.60
2019-02-02T00:19:08.796Z,32.20
2019-02-02T00:21:38.054Z,33.60
2019-02-02T00:24:07.273Z,30.40
2019-02-02T00:26:36.444Z,34.17
2019-02-02T00:29:05.769Z,42.50
2019-02-02T00:31:35.030Z,27.70
2019-02-02T00:34:05.651Z,26.33
2019-02-02T00:36:34.842Z,32.93
2019-02-02T00:39:06.220Z,35.43
2019-02-02T00:41:35.457Z,27.53
2019-02-02T00:44:04.824Z,64.60
2019-02-02T00:46:34.129Z,40.27
2019-02-02T00:49:03.426Z,65.83
2019-02-02T00:51:32.696Z,30.10
2019-02-02T00:54:01.915Z,30.73
2019-02-02T00:56:31.164Z,35.40
2019-02-02T00:59:00.647Z,32.57
2019-02-02T01:01:29.964Z,32.43
2019-02-02T01:03:59.290Z,68.93
2019-02-02T01:06:28.612Z,84.63
2019-02-02T01:09:00.438Z,39.93
2019-02-02T01:11:29.923Z,57.07
2019-02-02T01:14:06.191Z,45.73
2019-02-02T01:16:40.861Z,92.53
2019-02-02T01:19:15.064Z,87.50
2019-02-02T01:21:50.811Z,103.37
2019-02-02T01:24:25.447Z,89.67
2019-02-02T01:27:02.561Z,87.50
2019-02-02T01:29:38.422Z,114.77
2019-02-02T01:32:14.858Z,88.53
2019-02-02T01:34:53.078Z,90.73
2019-02-02T01:37:27.818Z,82.37
2019-02-02T01:40:03.150Z,81.87
2019-02-02T01:42:38.926Z,63.87
2019-02-02T01:45:17.591Z,76.87
2019-02-02T01:47:49.560Z,48.03
2019-02-02T01:50:22.834Z,67.03
2019-02-02T01:52:54.466Z,41.63
2019-02-02T01:55:23.956Z,56.17
2019-02-02T01:57:53.270Z,39.03
2019-02-02T02:00:28.930Z,37.83
2019-02-02T02:03:01.094Z,30.83
2019-02-02T02:05:38.439Z,78.37
2019-02-02T02:08:12.171Z,78.03
2019-02-02T02:10:43.597Z,77.83
2019-02-02T02:13:18.761Z,93.67
2019-02-02T02:15:50.523Z,81.93
2019-02-02T02:18:22.043Z,80.00
2019-02-02T02:20:57.216Z,77.50
2019-02-02T02:23:36.172Z,73.23
2019-02-02T02:26:18.478Z,67.60
2019-02-02T02:28:51.518Z,40.40
2019-02-02T02:31:20.980Z,42.00
2019-02-02T02:33:50.464Z,39.43
2019-02-02T02:36:19.750Z,40.80
2019-02-02T02:38:52.301Z,72.10
2019-02-02T02:41:21.580Z,38.00
2019-02-02T02:43:50.887Z,35.93
2019-02-02T02:46:20.114Z,40.57
2019-02-02T02:48:49.558Z,41.40
2019-02-02T02:51:18.710Z,27.40
2019-02-02T02:53:47.898Z,35.93
2019-02-02T02:56:17.149Z,45.93
2019-02-02T02:58:46.442Z,38.70
2019-02-02T03:01:15.593Z,33.07
2019-02-02T03:03:44.825Z,35.60
2019-02-02T03:06:14.059Z,27.70
2019-02-02T03:08:43.204Z,39.80
2019-02-02T03:11:12.364Z,32.33
2019-02-02T03:13:41.592Z,49.37
2019-02-02T03:16:10.827Z,55.90
2019-02-02T03:18:40.187Z,56.27
2019-02-02T03:21:09.489Z,24.70
2019-02-02T03:23:38.729Z,23.20
2019-02-02T03:26:07.953Z,49.63
2019-02-02T03:28:37.233Z,64.80
2019-02-02T03:31:06.495Z,32.97
2019-02-02T03:33:35.982Z,52.83
2019-02-02T03:36:07.133Z,53.73
2019-02-02T03:38:37.937Z,50.93
2019-02-02T03:41:12.608Z,35.00
2019-02-02T03:43:52.401Z,29.90
2019-02-02T03:46:24.665Z,32.97
2019-02-02T03:48:55.700Z,60.07
2019-02-02T03:51:27.659Z,51.60
2019-02-02T03:54:13.615Z,29.13
2019-02-02T03:56:52.300Z,27.93
2019-02-02T03:59:25.153Z,26.10
2019-02-02T04:02:01.508Z,25.33
2019-02-02T04:04:37.140Z,29.90
2019-02-02T04:07:14.051Z,29.77
2019-02-02T04:09:54.708Z,35.30
2019-02-02T04:12:30.047Z,55.60
2019-02-02T04:15:02.893Z,45.57
2019-02-02T04:17:38.572Z,113.03
2019-02-02T04:20:14.176Z,135.37
2019-02-02T04:22:45.878Z,169.53
2019-02-02T04:25:19.019Z,243.50
2019-02-02T04:27:52.361Z,124.20
2019-02-02T04:30:28.781Z,200.20
2019-02-02T04:33:03.132Z,152.47
2019-02-02T04:35:38.864Z,312.47
2019-02-02T04:38:10.704Z,175.37
2019-02-02T04:40:44.662Z,156.53
2019-02-02T04:43:15.699Z,219.33
2019-02-02T04:45:46.787Z,193.60
2019-02-02T04:48:17.208Z,159.07
2019-02-02T04:50:51.036Z,133.50
2019-02-02T04:53:22.536Z,58.33
2019-02-02T04:55:53.473Z,92.83
2019-02-02T04:58:23.503Z,163.90
2019-02-02T05:01:15.606Z,141.73
2019-02-02T05:03:45.231Z,132.00
2019-02-02T05:06:14.733Z,48.90
2019-02-02T05:08:43.994Z,168.27
2019-02-02T05:11:13.326Z,191.37
2019-02-02T05:13:51.862Z,171.43
2019-02-02T05:16:27.953Z,192.97
2019-02-02T05:19:03.314Z,104.37
2019-02-02T05:21:37.253Z,98.17
2019-02-02T05:24:22.133Z,97.33
2019-02-02T05:26:54.455Z,35.53
2019-02-02T05:29:23.963Z,94.57
2019-02-02T05:31:53.266Z,106.00
2019-02-02T05:34:22.815Z,87.93
2019-02-02T05:36:52.206Z,122.13
2019-02-02T05:39:24.870Z,171.80
2019-02-02T05:41:55.233Z,24.00
2019-02-02T05:44:32.864Z,17.83
2019-02-02T05:47:09.286Z,22.70
2019-02-02T05:49:43.436Z,32.83
2019-02-02T05:52:17.754Z,64.57
2019-02-02T05:54:49.030Z,45.60
2019-02-02T05:57:21.220Z,27.27
2019-02-02T05:59:53.002Z,50.47
2019-02-02T06:02:23.387Z,76.43
2019-02-02T06:04:53.291Z,95.63
2019-02-02T06:07:23.248Z,133.23
2019-02-02T06:09:53.069Z,108.50
2019-02-02T06:12:35.546Z,108.03
2019-02-02T06:15:05.923Z,141.33
2019-02-02T06:17:36.280Z,73.13
2019-02-02T06:20:07.842Z,102.40
2019-02-02T06:22:38.318Z,139.77
2019-02-02T06:25:10.568Z,97.10
2019-02-02T06:27:41.468Z,123.40
2019-02-02T06:30:17.775Z,125.77
2019-02-02T06:32:48.569Z,96.83
2019-02-02T06:35:20.122Z,106.97
2019-02-02T06:37:50.345Z,68.40
2019-02-02T06:40:21.259Z,52.10
2019-02-02T06:42:52.039Z,63.73
2019-02-02T06:45:27.724Z,70.03
2019-02-02T06:47:57.951Z,30.80
2019-02-02T06:50:31.718Z,41.57
2019-02-02T06:53:02.786Z,35.80
2019-02-02T06:55:34.765Z,37.00
2019-02-02T06:58:06.082Z,43.03
2019-02-02T07:00:36.256Z,42.17
2019-02-02T07:03:06.521Z,37.37
2019-02-02T07:05:39.049Z,31.17
2019-02-02T07:08:09.884Z,25.17
2019-02-02T07:10:40.141Z,38.80
2019-02-02T07:13:12.288Z,44.23
2019-02-02T07:15:45.576Z,35.53
2019-02-02T07:18:17.914Z,43.20
2019-02-02T07:20:49.127Z,38.17
2019-02-02T07:23:20.440Z,41.00
2019-02-02T07:25:51.994Z,43.70
2019-02-02T07:28:22.272Z,47.53
2019-02-02T07:30:53.781Z,29.90
2019-02-02T07:33:24.660Z,19.30
2019-02-02T07:35:57.265Z,30.47
2019-02-02T07:38:27.459Z,26.90
2019-02-02T07:40:57.916Z,39.47
2019-02-02T07:43:28.467Z,36.47
2019-02-02T07:46:00.288Z,45.10
2019-02-02T07:48:30.826Z,57.87
2019-02-02T07:51:02.070Z,27.73
2019-02-02T07:53:36.270Z,37.77
2019-02-02T07:56:10.255Z,27.20
2019-02-02T07:58:43.653Z,24.27
2019-02-02T08:01:17.402Z,23.63
2019-02-02T08:03:54.924Z,27.97
2019-02-02T08:06:26.780Z,21.00
2019-02-02T08:08:58.906Z,29.77
2019-02-02T08:11:31.263Z,40.63
2019-02-02T08:14:02.059Z,47.10
2019-02-02T08:16:41.728Z,35.10
2019-02-02T08:19:14.825Z,50.43
2019-02-02T08:21:46.410Z,25.80
2019-02-02T08:24:20.629Z,29.60
2019-02-02T08:26:51.803Z,27.70
2019-02-02T08:29:25.268Z,29.73
2019-02-02T08:31:58.404Z,23.90
2019-02-02T08:34:30.498Z,28.93
2019-02-02T08:37:00.703Z,27.03
2019-02-02T08:39:33.506Z,22.17
2019-02-02T08:42:10.509Z,19.80
2019-02-02T08:44:40.148Z,27.47
2019-02-02T08:47:10.251Z,33.33
2019-02-02T08:49:40.377Z,23.00
2019-02-02T08:52:09.887Z,34.97
2019-02-02T08:54:39.200Z,27.00
2019-02-02T08:57:08.473Z,30.80
2019-02-02T08:59:37.806Z,33.10
2019-02-02T09:02:07.237Z,28.30
2019-02-02T09:04:36.660Z,58.33
2019-02-02T09:07:06.809Z,53.40
2019-02-02T09:09:40.326Z,44.80
2019-02-02T09:12:09.790Z,40.83
2019-02-02T09:14:39.116Z,30.50
2019-02-02T09:17:08.461Z,31.00
2019-02-02T09:19:37.765Z,27.03
2019-02-02T09:22:07.043Z,43.43
2019-02-02T09:24:36.294Z,45.97
2019-02-02T09:27:05.602Z,31.13
2019-02-02T09:29:34.924Z,34.90
2019-02-02T09:32:04.388Z,34.80
2019-02-02T09:34:33.645Z,30.20
2019-02-02T09:37:02.889Z,34.90
2019-02-02T09:39:32.120Z,34.17
2019-02-02T09:42:01.439Z,40.00
2019-02-02T09:44:30.639Z,32.87
2019-02-02T09:46:59.917Z,27.83
2019-02-02T09:49:29.139Z,25.67
2019-02-02T09:51:58.401Z,26.33
2019-02-02T09:54:27.651Z,24.90
2019-02-02T09:56:56.842Z,30.80
2019-02-02T09:59:26.094Z,31.63
2019-02-02T10:01:55.346Z,32.70
2019-02-02T10:04:24.534Z,27.73
2019-02-02T10:06:53.786Z,26.13
2019-02-02T10:09:23.061Z,30.63
2019-02-02T10:11:52.366Z,23.30
2019-02-02T10:14:21.708Z,23.33
2019-02-02T10:16:51.039Z,22.63
2019-02-02T10:19:20.424Z,26.23
2019-02-02T10:21:49.932Z,27.40
2019-02-02T10:24:19.217Z,30.20
2019-02-02T10:26:48.549Z,22.37
2019-02-02T10:29:17.807Z,22.60
2019-02-02T10:31:47.154Z,17.10
2019-02-02T10:34:16.466Z,19.63
2019-02-02T10:36:45.712Z,14.50
2019-02-02T10:39:15.136Z,20.00
2019-02-02T10:41:44.415Z,13.37
2019-02-02T10:44:13.623Z,18.23
2019-02-02T10:46:42.903Z,16.00
2019-02-02T10:49:12.207Z,17.07
2019-02-02T10:51:41.482Z,17.70
2019-02-02T10:54:10.715Z,18.13
2019-02-02T10:56:41.288Z,16.20
2019-02-02T10:59:10.673Z,18.00
2019-02-02T11:01:50.511Z,18.33
2019-02-02T11:04:11.057Z,17.00
2019-02-02T11:06:40.503Z,20.67
2019-02-02T11:09:10.608Z,18.47
2019-02-02T11:11:40.266Z,19.80
2019-02-02T11:14:09.912Z,18.50
2019-02-02T11:16:39.396Z,22.50
2019-02-02T11:19:08.772Z,18.53
2019-02-02T11:21:38.229Z,26.67
2019-02-02T11:24:07.506Z,23.50
2019-02-02T11:26:36.902Z,21.30
2019-02-02T11:29:06.151Z,22.53
2019-02-02T11:31:35.479Z,26.60
2019-02-02T11:34:04.817Z,31.50
2019-02-02T11:36:34.047Z,27.43
2019-02-02T11:39:04.689Z,31.17
2019-02-02T11:41:33.976Z,27.70
2019-02-02T11:44:03.234Z,25.73
2019-02-02T11:46:32.501Z,22.40
2019-02-02T11:49:01.777Z,25.03
2019-02-02T11:51:31.083Z,31.17
2019-02-02T11:54:00.333Z,28.07
2019-02-02T11:56:29.583Z,25.40
2019-02-02T11:58:58.821Z,26.67
2019-02-02T12:01:28.090Z,26.47
2019-02-02T12:03:57.329Z,31.47
2019-02-02T12:06:26.621Z,22.50
2019-02-02T12:08:55.878Z,23.90
2019-02-02T12:11:25.144Z,28.00
2019-02-02T12:13:56.497Z,24.20
2019-02-02T12:16:25.669Z,21.27
2019-02-02T12:18:54.933Z,24.97
2019-02-02T12:21:24.207Z,23.63
2019-02-02T12:23:53.530Z,25.13
2019-02-02T12:26:22.848Z,23.10
2019-02-02T12:28:52.271Z,25.67
2019-02-02T12:31:21.486Z,23.77
2019-02-02T12:33:50.708Z,21.83
2019-02-02T12:36:19.975Z,20.60
2019-02-02T12:38:49.156Z,22.07
2019-02-02T12:41:18.444Z,23.80
2019-02-02T12:43:47.601Z,24.23
2019-02-02T12:46:16.885Z,20.50
2019-02-02T12:48:46.076Z,23.97
2019-02-02T12:51:15.213Z,23.70
2019-02-02T12:53:44.492Z,24.20
2019-02-02T12:56:13.640Z,22.10
2019-02-02T12:58:42.860Z,25.27
2019-02-02T13:01:13.926Z,28.03
2019-02-02T13:03:43.067Z,31.47
2019-02-02T13:06:12.334Z,23.93
2019-02-02T13:08:41.876Z,22.37
2019-02-02T13:11:11.153Z,27.10
2019-02-02T13:13:42.600Z,24.87
2019-02-02T13:16:11.426Z,28.17
2019-02-02T13:18:40.665Z,28.90
2019-02-02T13:21:13.961Z,24.27
2019-02-02T13:23:43.209Z,26.30
2019-02-02T13:26:12.457Z,36.73
2019-02-02T13:28:41.733Z,29.20
2019-02-02T13:31:10.972Z,26.57
2019-02-02T13:33:40.149Z,26.87
2019-02-02T13:36:09.382Z,31.30
2019-02-02T13:38:39.706Z,28.83
2019-02-02T13:41:08.955Z,33.40
2019-02-02T13:43:38.204Z,23.23
2019-02-02T13:46:07.354Z,42.37
2019-02-02T13:48:36.602Z,34.57
2019-02-02T13:51:06.265Z,30.07
2019-02-02T13:53:35.561Z,29.83
2019-02-02T13:56:04.803Z,25.90
2019-02-02T13:58:34.050Z,33.20
2019-02-02T14:01:03.270Z,21.83
2019-02-02T14:03:32.729Z,15.47
2019-02-02T14:06:01.956Z,15.50
2019-02-02T14:08:31.116Z,18.20
2019-02-02T14:11:00.367Z,20.20
2019-02-02T14:13:29.537Z,24.73
2019-02-02T14:15:58.753Z,21.60
2019-02-02T14:18:27.978Z,41.87
2019-02-02T14:20:57.133Z,32.47
2019-02-02T14:23:26.352Z,25.83
2019-02-02T14:25:55.531Z,17.33
2019-02-02T14:28:28.400Z,20.10
2019-02-02T14:30:55.665Z,21.10
2019-02-02T14:33:24.928Z,17.80
2019-02-02T14:35:54.104Z,23.87
2019-02-02T14:38:23.373Z,23.70
2019-02-02T14:40:52.545Z,17.37
2019-02-02T14:43:21.804Z,17.80
2019-02-02T14:45:50.965Z,21.97
2019-02-02T14:48:20.218Z,21.37
2019-02-02T14:50:49.464Z,23.47
2019-02-02T14:53:18.645Z,20.27
2019-02-02T14:55:47.817Z,21.67
2019-02-02T14:58:17.101Z,18.50
2019-02-02T15:00:46.342Z,19.07
2019-02-02T15:03:25.524Z,18.53
2019-02-02T15:05:47.697Z,15.10
2019-02-02T15:08:16.954Z,17.40
2019-02-02T15:10:46.209Z,17.67
2019-02-02T15:13:15.454Z,18.50
2019-02-02T15:15:44.705Z,20.40
2019-02-02T15:18:13.965Z,18.73
2019-02-02T15:20:44.061Z,20.30
2019-02-02T15:23:13.280Z,18.13
2019-02-02T15:25:43.046Z,25.10
2019-02-02T15:28:12.332Z,26.43
2019-02-02T15:30:41.521Z,25.20
2019-02-02T15:33:10.748Z,30.00
2019-02-02T15:35:39.999Z,24.40
2019-02-02T15:38:09.267Z,29.17
2019-02-02T15:40:38.426Z,25.13
2019-02-02T15:43:07.737Z,23.80
2019-02-02T15:45:37.059Z,23.20
2019-02-02T15:48:06.230Z,20.97
2019-02-02T15:50:35.417Z,23.80
2019-02-02T15:53:04.749Z,25.47
2019-02-02T15:55:33.942Z,20.43
2019-02-02T15:58:03.220Z,26.23
2019-02-02T16:00:34.185Z,24.03
2019-02-02T16:03:03.490Z,24.13
2019-02-02T16:05:33.018Z,23.20
2019-02-02T16:08:06.619Z,18.63
2019-02-02T16:10:36.116Z,20.83
2019-02-02T16:13:05.422Z,23.50
2019-02-02T16:15:34.821Z,24.47
2019-02-02T16:18:04.833Z,24.97
2019-02-02T16:20:36.478Z,23.70
2019-02-02T16:23:06.290Z,28.53
2019-02-02T16:25:35.600Z,29.60
2019-02-02T16:28:05.036Z,30.10
2019-02-02T16:30:34.373Z,29.20
2019-02-02T16:33:03.569Z,39.93
2019-02-02T16:35:33.158Z,33.07
2019-02-02T16:38:02.491Z,31.97
2019-02-02T16:40:31.845Z,32.03
2019-02-02T16:43:01.346Z,33.10
2019-02-02T16:45:31.326Z,33.83
2019-02-02T16:48:00.948Z,31.83
2019-02-02T16:50:30.437Z,30.57
2019-02-02T16:52:59.707Z,27.10
2019-02-02T16:55:28.984Z,29.40
2019-02-02T16:57:58.207Z,24.90
2019-02-02T17:00:32.243Z,23.40
2019-02-02T17:03:01.445Z,28.13
2019-02-02T17:05:30.723Z,32.67
2019-02-02T17:08:00.053Z,32.10
2019-02-02T17:10:34.391Z,40.27
2019-02-02T17:13:04.150Z,42.37
2019-02-02T17:15:33.411Z,32.20
2019-02-02T17:18:02.624Z,41.13
2019-02-02T17:20:38.901Z,38.57
2019-02-02T17:23:08.260Z,41.07
2019-02-02T17:25:37.740Z,32.93
2019-02-02T17:28:07.671Z,29.60
2019-02-02T17:30:37.096Z,24.63
2019-02-02T17:33:11.833Z,21.50
2019-02-02T17:35:41.017Z,16.93
2019-02-02T17:38:10.348Z,27.30
2019-02-02T17:40:39.662Z,20.17
2019-02-02T17:43:08.830Z,20.57
2019-02-02T17:45:38.032Z,15.00
2019-02-02T17:48:08.121Z,21.00
2019-02-02T17:50:37.465Z,22.50
2019-02-02T17:53:09.460Z,29.73
2019-02-02T17:55:38.672Z,36.20
2019-02-02T17:58:07.840Z,38.57
2019-02-02T18:00:54.368Z,30.40
2019-02-02T18:03:23.638Z,31.27
2019-02-02T18:05:52.949Z,25.50
2019-02-02T18:08:22.236Z,24.33
2019-02-02T18:10:51.833Z,25.13
2019-02-02T18:13:30.207Z,39.87
2019-02-02T18:15:59.791Z,37.13
2019-02-02T18:18:29.263Z,34.13
2019-02-02T18:20:58.885Z,26.33
2019-02-02T18:23:28.460Z,26.60
2019-02-02T18:25:58.084Z,30.40
2019-02-02T18:28:27.711Z,30.80
2019-02-02T18:30:57.344Z,25.40
2019-02-02T18:33:26.797Z,25.03
2019-02-02T18:35:56.208Z,31.37
2019-02-02T18:38:25.730Z,37.93
2019-02-02T18:40:55.173Z,44.73
2019-02-02T18:43:24.742Z,44.30
2019-02-02T18:45:54.315Z,34.77
2019-02-02T18:48:23.810Z,40.17
2019-02-02T18:50:53.222Z,38.67
2019-02-02T18:53:22.684Z,44.13
2019-02-02T18:55:59.033Z,34.47
2019-02-02T18:58:28.295Z,34.33
2019-02-02T19:00:57.585Z,35.23
2019-02-02T19:03:26.829Z,33.60
2019-02-02T19:05:56.134Z,30.57
2019-02-02T19:08:25.360Z,33.87
2019-02-02T19:10:54.686Z,30.57
2019-02-02T19:13:23.965Z,34.80
2019-02-02T19:15:53.228Z,37.53
2019-02-02T19:18:22.502Z,34.40
2019-02-02T19:20:51.762Z,33.23
2019-02-02T19:23:25.402Z,35.00
2019-02-02T19:25:52.059Z,31.27
2019-02-02T19:28:21.352Z,35.27
2019-02-02T19:30:53.454Z,31.50
2019-02-02T19:33:21.616Z,33.60
2019-02-02T19:35:50.864Z,28.90
2019-02-02T19:38:20.642Z,39.20
2019-02-02T19:40:49.905Z,30.70
2019-02-02T19:43:19.393Z,28.47
2019-02-02T19:45:48.715Z,30.30
2019-02-02T19:48:17.984Z,34.10
2019-02-02T19:50:47.411Z,34.57
2019-02-02T19:53:16.803Z,40.47
2019-02-02T19:55:46.168Z,34.17
2019-02-02T19:58:15.460Z,52.17
2019-02-02T20:00:45.028Z,39.67
2019-02-02T20:03:14.320Z,38.10
2019-02-02T20:05:43.563Z,36.07
2019-02-02T20:08:12.857Z,30.23
2019-02-02T20:10:42.105Z,33.23
2019-02-02T20:13:11.516Z,43.73
2019-02-02T20:15:40.887Z,35.50
2019-02-02T20:18:10.729Z,46.00
2019-02-02T20:20:40.037Z,31.43
2019-02-02T20:23:09.314Z,34.63
2019-02-02T20:25:38.486Z,33.77
2019-02-02T20:28:07.679Z,34.40
2019-02-02T20:30:36.925Z,38.60
2019-02-02T20:33:06.287Z,35.43
2019-02-02T20:35:42.110Z,34.87
2019-02-02T20:38:06.546Z,44.47
2019-02-02T20:40:35.798Z,57.03
2019-02-02T20:43:05.384Z,46.90
2019-02-02T20:45:35.685Z,34.10
2019-02-02T20:48:05.160Z,48.53
2019-02-02T20:50:34.406Z,31.50
2019-02-02T20:53:03.696Z,37.60
2019-02-02T20:55:35.941Z,55.97
2019-02-02T20:58:06.012Z,37.47
2019-02-02T21:00:35.345Z,33.30
2019-02-02T21:03:04.714Z,34.70
2019-02-02T21:05:33.870Z,44.63
2019-02-02T21:08:03.510Z,32.50
2019-02-02T21:10:32.752Z,35.80
2019-02-02T21:13:02.030Z,44.53
2019-02-02T21:15:31.222Z,40.67
2019-02-02T21:18:00.485Z,37.20
2019-02-02T21:20:29.894Z,37.70
2019-02-02T21:22:59.186Z,34.23
2019-02-02T21:25:28.341Z,38.43
2019-02-02T21:27:57.636Z,41.97
2019-02-02T21:30:28.907Z,46.83
2019-02-02T21:32:58.240Z,56.70
2019-02-02T21:35:27.508Z,47.50
2019-02-02T21:37:56.874Z,60.47
2019-02-02T21:40:30.734Z,50.57
2019-02-02T21:43:00.126Z,40.93
2019-02-02T21:45:29.387Z,42.00
2019-02-02T21:47:58.664Z,46.37
2019-02-02T21:50:27.952Z,43.67
2019-02-02T21:52:57.253Z,54.70
2019-02-02T21:55:27.604Z,61.70
2019-02-02T21:57:56.998Z,44.13
2019-02-02T22:00:31.816Z,38.67
2019-02-02T22:03:01.092Z,44.27
2019-02-02T22:05:30.332Z,41.77
2019-02-02T22:07:59.634Z,49.10
2019-02-02T22:10:28.813Z,43.40
2019-02-02T22:12:58.310Z,44.63
2019-02-02T22:15:27.694Z,41.57
2019-02-02T22:17:56.949Z,39.70
2019-02-02T22:20:26.126Z,37.00
2019-02-02T22:22:55.404Z,36.50
2019-02-02T22:25:27.020Z,37.13
2019-02-02T22:27:56.318Z,42.43
2019-02-02T22:30:27.583Z,42.70
2019-02-02T22:32:56.770Z,43.00
2019-02-02T22:35:25.954Z,51.70
2019-02-02T22:37:55.836Z,54.50
2019-02-02T22:40:25.797Z,44.90
2019-02-02T22:42:55.075Z,54.70
2019-02-02T22:45:24.554Z,54.33
2019-02-02T22:47:53.864Z,41.90
2019-02-02T22:50:24.622Z,43.30
2019-02-02T22:52:54.133Z,39.30
2019-02-02T22:55:23.474Z,37.37
2019-02-02T22:57:53.273Z,38.03
2019-02-02T23:01:24.884Z,37.17
2019-02-02T23:04:34.638Z,40.60
2019-02-02T23:07:32.149Z,41.37
2019-02-02T23:10:46.891Z,41.93
2019-02-02T23:13:47.643Z,48.03
2019-02-02T23:16:35.061Z,39.00
2019-02-02T23:19:07.159Z,47.13
2019-02-02T23:21:38.784Z,43.73
2019-02-02T23:24:11.271Z,42.43
2019-02-02T23:26:43.503Z,47.23
2019-02-02T23:29:14.640Z,50.27
2019-02-02T23:31:48.067Z,53.47
2019-02-02T23:34:23.688Z,54.63
2019-02-02T23:36:55.949Z,52.47
2019-02-02T23:39:28.561Z,61.03
2019-02-02T23:42:12.766Z,55.73
2019-02-02T23:44:47.389Z,53.23
2019-02-02T23:47:20.254Z,56.77
2019-02-02T23:49:50.880Z,57.43
2019-02-02T23:52:23.254Z,58.17
2019-02-02T23:54:56.270Z,53.57
2019-02-02T23:57:28.494Z,55.73
